Create Tblcommutelog Verified Points Advance Search
| # | Trip ID | Id Commuter | Trip Date | Trip Num | Current Lat | Current Lng | Delta Distance | Current Time | Activity | Activity Confidence | Current Speed | |
|---|---|---|---|---|---|---|---|---|---|---|---|---|
| 70801 | 250924_781336_16649009_1346 | 781336 | (not set) | (not set) | 38.953324891663 | -77.3678229098 | 23.7783 | 2025-09-24 16:31:29 | in_vehicle | 100 | 10.080735290173 | |
| 70802 | 250924_781336_16649009_1346 | 781336 | (not set) | (not set) | 38.953327070958 | -77.369963815508 | 23.8938 | 2025-09-24 16:31:34 | in_vehicle | 100 | 10.17908392715 | |
| 70803 | 250924_780813_16421763_1603 | 780813 | (not set) | (not set) | 38.869614428391 | -77.053962718237 | 2.5784 | 2025-09-24 16:31:37 | in_vehicle | 100 | -0.44703925898772 | |
| 70804 | 250924_781457_16649141_1556 | 781457 | (not set) | (not set) | 38.860463435051 | -77.355967354486 | 19.1254 | 2025-09-24 16:31:47 | in_vehicle | 100 | 11.900185074253 | |
| 70805 | 250924_606528_16445554_1601 | 606528 | (not set) | (not set) | 38.875274618806 | -77.282379167754 | 15.2379 | 2025-09-24 16:31:51 | unknown | 100 | 13.147424606829 | |
| 70806 | 250924_788956_16657708_1602 | 788956 | (not set) | (not set) | 38.790887593464 | -77.159092666941 | 12.3268 | 2025-09-24 16:32:01 | in_vehicle | 100 | -0.44703925898772 | |
| 70807 | 250924_785822_16656269_1627 | 785822 | (not set) | (not set) | 38.984612806734 | -76.955463960106 | 0.8018 | 2025-09-24 16:32:14 | in_vehicle | 100 | 3.3215016942788 | |
| 70808 | 250924_788616_16657606_1630 | 788616 | (not set) | (not set) | 38.990509362663 | -76.953257071023 | 0.354 | 2025-09-24 16:32:26 | unknown | 100 | 5.9813852852558 | |
| 70809 | 250924_787700_16656208_1615 | 787700 | (not set) | (not set) | 39.310505129582 | -76.633835463672 | 2.3252 | 2025-09-24 16:32:33 | in_vehicle | 100 | 1.6585156508445 | |
| 70810 | 250924_788899_16657639_1538 | 788899 | (not set) | (not set) | 38.878733961351 | -77.111625033907 | 4.0748 | 2025-09-24 16:32:37 | in_vehicle | 100 | -0.44703925898772 | |
| 70811 | 250924_606528_16445554_1601 | 606528 | (not set) | (not set) | 38.871102603869 | -77.297128919684 | 16.084 | 2025-09-24 16:32:41 | unknown | 100 | 12.39192825914 | |
| 70812 | 250924_786113_16654392_1553 | 786113 | (not set) | (not set) | 38.869991331297 | -77.303283386705 | 27.3548 | 2025-09-24 16:32:47 | in_vehicle | 100 | 12.154997451876 | |
| 70813 | 250924_787298_16655763_1611 | 787298 | (not set) | (not set) | 39.113930884877 | -76.598600468411 | 8.8189 | 2025-09-24 16:32:54 | in_vehicle | 100 | 5.1498922635386 | |
| 70814 | 250924_785822_16656269_1627 | 785822 | (not set) | (not set) | 38.982328749994 | -76.959912734649 | 1.0935 | 2025-09-24 16:33:00 | in_vehicle | 100 | 3.5494917163625 | |
| 70815 | 250924_787968_16656505_1552 | 787968 | (not set) | (not set) | 38.8686355 | -77.311311283333 | 28.0592 | 2025-09-24 16:33:11 | in_vehicle | 100 | 13.961036058187 | |
| 70816 | 250924_784692_16652683_1601 | 784692 | (not set) | (not set) | 38.868131997416 | -77.313429764276 | 22.7589 | 2025-09-24 16:33:18 | in_vehicle | 100 | 13.49164483625 | |
| 70817 | 250924_739141_16657642_1614 | 739141 | (not set) | (not set) | 38.887250283333 | -77.06219135 | 1.9151 | 2025-09-24 16:33:25 | unknown | 100 | 8.8290253650076 | |
| 70818 | 250924_786871_16655329_1614 | 786871 | (not set) | (not set) | 39.328573811836 | -76.664178734717 | 3.715 | 2025-09-24 16:33:31 | in_vehicle | 100 | 9.6336960311855 | |
| 70819 | 250924_786132_16654406_1605 | 786132 | (not set) | (not set) | 38.866750289449 | -77.321029948799 | 21.7084 | 2025-09-24 16:33:39 | in_vehicle | 100 | 14.318667465377 | |
| 70820 | 250924_789039_16482588_0704 | 789039 | (not set) | (not set) | 38.8625062 | -77.0439035 | 2.4978 | 2025-09-24 07:19:14 | on_bicycle | 100 | 3.7327778125475 |